Wind From: 10-12-2017 19:04 Until: 11-12-2017 16:00 warning for: Wind Level: Orange info button

Power and phone distribution networks may be disrupted for relatively long periods., Roofs and chimneys can be damaged. , Tree branches may break. , Vehicles can be deported. , Traffic may be disrupted, particularly on secondary roads in forest areas. Limit your trips. , Limit your speed in highway driving, especially if you drive a vehicle or hitch sensitive to wind. , Do not go for walks in forests or along the coast., In town, be vigilant against possible falling objects., Do not work on roofs and do not touch any electrical line fallen on the ground., Store or secure sensitive objects to wind or likely to be damaged., Always install power generators outside buildings. 


Meteo18 Weather Cam more information Meteo18 Weather Cam


Thunder radar more information blitzortung!


Rain radar more information rain snow radar


Visit our other weather sites:

Template documentation
and downloads

And another site



Weather Underground History page Text

Daily Summary for October 2, 2017 Units:  Both    English   Metric
« Previous Day
Next Day »
Daily Weekly Monthly Yearly Custom
  High: Low: Average:
Temperature: 65.8 °F /  18.8 °C 56.8 °F /  13.8 °C 61.5 °F /  16.4 °C
Dew Point: 62.2 °F /  16.8 °C 55.9 °F /  13.3 °C 59.7 °F /  15.4 °C
Humidity: 98 % 85 % 94 %
Wind Speed: 14 mph /  22.5 km/h - 5 mph /  8.1 km/h
Wind Gust: 21 mph /  33.8 km/h - -
Wind:- - SW
Pressure: 30.2 in /  1021.9 hPa 30.1 in /  1020.2 hPa -
Precipitation: 0.04 in /  1.0 mm    
Historical Graphs
 
 
Tabular Data for October 2, 2017
Time Temperature Dew Point Pressure Wind Wind Speed Wind Gust Humidity Rainfall Rate (Hourly)
00:02 56.8 °F /  13.8 °C 55.9 °F /  13.3 °C 30.2 in /  1020.9 hPa SSW 4 mph /  6.4 km/h 11 mph /  17.7 km/h 97 % 0 in /  0.0 mm
00:07 56.8 °F /  13.8 °C 55.9 °F /  13.3 °C 30.2 in /  1020.9 hPa SSW 5 mph /  8.0 km/h 11 mph /  17.7 km/h 97 % 0 in /  0.0 mm
00:12 56.8 °F /  13.8 °C 55.9 °F /  13.3 °C 30.2 in /  1020.9 hPa SSW 3 mph /  4.8 km/h 9 mph /  14.5 km/h 97 % 0 in /  0.0 mm
00:17 56.8 °F /  13.8 °C 55.9 °F /  13.3 °C 30.2 in /  1020.9 hPa SW 6 mph /  9.7 km/h 9 mph /  14.5 km/h 97 % 0 in /  0.0 mm
00:22 56.8 °F /  13.8 °C 55.9 °F /  13.3 °C 30.2 in /  1020.9 hPa SW 5 mph /  8.0 km/h 9 mph /  14.5 km/h 97 % 0 in /  0.0 mm
00:32 56.8 °F /  13.8 °C 55.9 °F /  13.3 °C 30.2 in /  1020.9 hPa South 3 mph /  4.8 km/h 8 mph /  12.9 km/h 97 % 0 in /  0.0 mm
00:37 56.8 °F /  13.8 °C 55.9 °F /  13.3 °C 30.2 in /  1020.9 hPa SW 8 mph /  12.9 km/h 9 mph /  14.5 km/h 97 % 0 in /  0.0 mm
00:42 56.8 °F /  13.8 °C 55.9 °F /  13.3 °C 30.2 in /  1020.9 hPa SW 3 mph /  4.8 km/h 9 mph /  14.5 km/h 97 % 0 in /  0.0 mm
00:47 56.8 °F /  13.8 °C 55.9 °F /  13.3 °C 30.1 in /  1020.5 hPa SW 5 mph /  8.0 km/h 9 mph /  14.5 km/h 97 % 0 in /  0.0 mm
00:57 56.8 °F /  13.8 °C 55.9 °F /  13.3 °C 30.1 in /  1020.5 hPa SW 5 mph /  8.0 km/h 9 mph /  14.5 km/h 97 % 0 in /  0.0 mm
01:02 56.8 °F /  13.8 °C 55.9 °F /  13.3 °C 30.1 in /  1020.5 hPa SSW 3 mph /  4.8 km/h 7 mph /  11.3 km/h 97 % 0 in /  0.0 mm
01:12 56.8 °F /  13.8 °C 55.9 °F /  13.3 °C 30.2 in /  1020.9 hPa SSW 3 mph /  4.8 km/h 8 mph /  12.9 km/h 97 % 0 in /  0.0 mm
01:22 56.8 °F /  13.8 °C 55.9 °F /  13.3 °C 30.2 in /  1020.9 hPa SSW 2 mph /  3.2 km/h 7 mph /  11.3 km/h 97 % 0 in /  0.0 mm
01:32 56.8 °F /  13.8 °C 55.9 °F /  13.3 °C 30.2 in /  1020.9 hPa SSW 2 mph /  3.2 km/h 6 mph /  9.7 km/h 97 % 0 in /  0.0 mm
01:37 56.8 °F /  13.8 °C 55.9 °F /  13.3 °C 30.2 in /  1020.9 hPa South 3 mph /  4.8 km/h 6 mph /  9.7 km/h 97 % 0 in /  0.0 mm
01:42 57 °F /  13.9 °C 56.1 °F /  13.4 °C 30.1 in /  1020.5 hPa SSW 2 mph /  3.2 km/h 6 mph /  9.7 km/h 97 % 0 in /  0.0 mm
01:47 57 °F /  13.9 °C 56.1 °F /  13.4 °C 30.1 in /  1020.5 hPa SW 4 mph /  6.4 km/h 5 mph /  8.0 km/h 97 % 0 in /  0.0 mm
01:52 57 °F /  13.9 °C 56.1 °F /  13.4 °C 30.1 in /  1020.5 hPa SSW 3 mph /  4.8 km/h 5 mph /  8.0 km/h 97 % 0 in /  0.0 mm
01:57 57 °F /  13.9 °C 56.1 °F /  13.4 °C 30.1 in /  1020.5 hPa SW 5 mph /  8.0 km/h 7 mph /  11.3 km/h 97 % 0 in /  0.0 mm
02:02 57 °F /  13.9 °C 56.1 °F /  13.4 °C 30.1 in /  1020.5 hPa SW 7 mph /  11.3 km/h 7 mph /  11.3 km/h 97 % 0 in /  0.0 mm
02:07 57 °F /  13.9 °C 56.1 °F /  13.4 °C 30.1 in /  1020.5 hPa SSW 6 mph /  9.7 km/h 8 mph /  12.9 km/h 97 % 0 in /  0.0 mm
02:12 57 °F /  13.9 °C 56.1 °F /  13.4 °C 30.1 in /  1020.5 hPa SW 5 mph /  8.0 km/h 8 mph /  12.9 km/h 97 % 0 in /  0.0 mm
02:17 57.2 °F /  14.0 °C 56.3 °F /  13.5 °C 30.1 in /  1020.5 hPa SSW 3 mph /  4.8 km/h 8 mph /  12.9 km/h 97 % 0 in /  0.0 mm
02:22 57.2 °F /  14.0 °C 56.3 °F /  13.5 °C 30.1 in /  1020.5 hPa SSW 5 mph /  8.0 km/h 9 mph /  14.5 km/h 97 % 0 in /  0.0 mm
02:27 57.2 °F /  14.0 °C 56.3 °F /  13.5 °C 30.1 in /  1020.5 hPa SSW 4 mph /  6.4 km/h 9 mph /  14.5 km/h 97 % 0.01 in /  0.3 mm
02:32 57.4 °F /  14.1 °C 56.5 °F /  13.6 °C 30.1 in /  1020.5 hPa SSW 3 mph /  4.8 km/h 9 mph /  14.5 km/h 97 % 0.01 in /  0.3 mm
02:37 57.4 °F /  14.1 °C 56.5 °F /  13.6 °C 30.1 in /  1020.5 hPa SSW 5 mph /  8.0 km/h 7 mph /  11.3 km/h 97 % 0.01 in /  0.3 mm
02:42 57.4 °F /  14.1 °C 56.5 °F /  13.6 °C 30.1 in /  1020.5 hPa South 2 mph /  3.2 km/h 7 mph /  11.3 km/h 97 % 0.01 in /  0.3 mm
02:47 57.4 °F /  14.1 °C 56.5 °F /  13.6 °C 30.1 in /  1020.5 hPa SW 5 mph /  8.0 km/h 8 mph /  12.9 km/h 97 % 0.01 in /  0.3 mm
02:52 57.4 °F /  14.1 °C 56.5 °F /  13.6 °C 30.1 in /  1020.5 hPa SW 5 mph /  8.0 km/h 8 mph /  12.9 km/h 97 % 0.01 in /  0.3 mm
02:57 57.4 °F /  14.1 °C 56.5 °F /  13.6 °C 30.1 in /  1020.2 hPa SW 3 mph /  4.8 km/h 8 mph /  12.9 km/h 97 % 0.01 in /  0.3 mm
03:02 57.6 °F /  14.2 °C 56.7 °F /  13.7 °C 30.1 in /  1020.2 hPa SSW 3 mph /  4.8 km/h 8 mph /  12.9 km/h 97 % 0.01 in /  0.3 mm
03:12 57.6 °F /  14.2 °C 56.7 °F /  13.7 °C 30.1 in /  1020.2 hPa SSW 3 mph /  4.8 km/h 8 mph /  12.9 km/h 97 % 0.01 in /  0.3 mm
03:17 57.6 °F /  14.2 °C 56.7 °F /  13.7 °C 30.1 in /  1020.2 hPa SSW 2 mph /  3.2 km/h 8 mph /  12.9 km/h 97 % 0.01 in /  0.3 mm
03:22 57.6 °F /  14.2 °C 56.7 °F /  13.7 °C 30.1 in /  1020.2 hPa SW 6 mph /  9.7 km/h 8 mph /  12.9 km/h 97 % 0.01 in /  0.3 mm
03:27 57.6 °F /  14.2 °C 56.7 °F /  13.7 °C 30.1 in /  1020.2 hPa SW 3 mph /  4.8 km/h 8 mph /  12.9 km/h 97 % 0 in /  0.0 mm
03:32 57.6 °F /  14.2 °C 56.7 °F /  13.7 °C 30.1 in /  1020.5 hPa SSW 5 mph /  8.0 km/h 8 mph /  12.9 km/h 97 % 0 in /  0.0 mm
03:37 57.6 °F /  14.2 °C 56.7 °F /  13.7 °C 30.1 in /  1020.2 hPa SSW 6 mph /  9.7 km/h 8 mph /  12.9 km/h 97 % 0 in /  0.0 mm
03:42 57.7 °F /  14.3 °C 56.8 °F /  13.8 °C 30.1 in /  1020.2 hPa South 3 mph /  4.8 km/h 7 mph /  11.3 km/h 97 % 0 in /  0.0 mm
03:47 57.7 °F /  14.3 °C 56.8 °F /  13.8 °C 30.1 in /  1020.2 hPa SSW 3 mph /  4.8 km/h 7 mph /  11.3 km/h 97 % 0 in /  0.0 mm
03:52 57.7 °F /  14.3 °C 57.2 °F /  14.0 °C 30.1 in /  1020.2 hPa SW 2 mph /  3.2 km/h 7 mph /  11.3 km/h 98 % 0 in /  0.0 mm
03:57 57.7 °F /  14.3 °C 56.8 °F /  13.8 °C 30.1 in /  1020.5 hPa SW 4 mph /  6.4 km/h 7 mph /  11.3 km/h 97 % 0 in /  0.0 mm
04:02 57.7 °F /  14.3 °C 57.2 °F /  14.0 °C 30.1 in /  1020.5 hPa WSW 3 mph /  4.8 km/h 7 mph /  11.3 km/h 98 % 0 in /  0.0 mm
04:07 57.7 °F /  14.3 °C 57.2 °F /  14.0 °C 30.1 in /  1020.2 hPa SW 5 mph /  8.0 km/h 7 mph /  11.3 km/h 98 % 0 in /  0.0 mm
04:12 57.7 °F /  14.3 °C 57.2 °F /  14.0 °C 30.1 in /  1020.5 hPa SW 4 mph /  6.4 km/h 7 mph /  11.3 km/h 98 % 0 in /  0.0 mm
04:17 57.7 °F /  14.3 °C 57.2 °F /  14.0 °C 30.1 in /  1020.2 hPa WSW 6 mph /  9.7 km/h 7 mph /  11.3 km/h 98 % 0 in /  0.0 mm
04:22 57.9 °F /  14.4 °C 57.4 °F /  14.1 °C 30.1 in /  1020.2 hPa SW 6 mph /  9.7 km/h 7 mph /  11.3 km/h 98 % 0 in /  0.0 mm
04:27 57.9 °F /  14.4 °C 57.4 °F /  14.1 °C 30.1 in /  1020.5 hPa SSW 5 mph /  8.0 km/h 10 mph /  16.1 km/h 98 % 0 in /  0.0 mm
04:32 57.9 °F /  14.4 °C 57.4 °F /  14.1 °C 30.1 in /  1020.5 hPa SW 3 mph /  4.8 km/h 10 mph /  16.1 km/h 98 % 0 in /  0.0 mm
04:37 57.9 °F /  14.4 °C 57.4 °F /  14.1 °C 30.1 in /  1020.5 hPa SW 2 mph /  3.2 km/h 9 mph /  14.5 km/h 98 % 0 in /  0.0 mm
04:42 57.9 °F /  14.4 °C 57.4 °F /  14.1 °C 30.1 in /  1020.5 hPa SW 5 mph /  8.0 km/h 7 mph /  11.3 km/h 98 % 0 in /  0.0 mm
04:52 58.1 °F /  14.5 °C 57.6 °F /  14.2 °C 30.1 in /  1020.5 hPa SSW 2 mph /  3.2 km/h 7 mph /  11.3 km/h 98 % 0 in /  0.0 mm
04:57 58.1 °F /  14.5 °C 57.6 °F /  14.2 °C 30.1 in /  1020.5 hPa SW 3 mph /  4.8 km/h 6 mph /  9.7 km/h 98 % 0 in /  0.0 mm
05:02 58.1 °F /  14.5 °C 57.6 °F /  14.2 °C 30.1 in /  1020.5 hPa SSE 3 mph /  4.8 km/h 6 mph /  9.7 km/h 98 % 0 in /  0.0 mm
05:07 58.1 °F /  14.5 °C 57.6 °F /  14.2 °C 30.1 in /  1020.5 hPa SW 5 mph /  8.0 km/h 5 mph /  8.0 km/h 98 % 0 in /  0.0 mm
05:12 58.3 °F /  14.6 °C 57.7 °F /  14.3 °C 30.1 in /  1020.5 hPa SW 4 mph /  6.4 km/h 6 mph /  9.7 km/h 98 % 0 in /  0.0 mm
05:22 58.3 °F /  14.6 °C 57.7 °F /  14.3 °C 30.1 in /  1020.2 hPa SW 4 mph /  6.4 km/h 7 mph /  11.3 km/h 98 % 0.01 in /  0.3 mm
05:27 58.3 °F /  14.6 °C 57.7 °F /  14.3 °C 30.1 in /  1020.2 hPa SW 4 mph /  6.4 km/h 7 mph /  11.3 km/h 98 % 0.01 in /  0.3 mm
05:32 58.5 °F /  14.7 °C 57.9 °F /  14.4 °C 30.1 in /  1020.5 hPa SW 3 mph /  4.8 km/h 7 mph /  11.3 km/h 98 % 0.01 in /  0.3 mm
05:37 58.5 °F /  14.7 °C 57.9 °F /  14.4 °C 30.1 in /  1020.5 hPa SSW 4 mph /  6.4 km/h 7 mph /  11.3 km/h 98 % 0.01 in /  0.3 mm
05:42 58.5 °F /  14.7 °C 57.9 °F /  14.4 °C 30.1 in /  1020.5 hPa SW 5 mph /  8.0 km/h 9 mph /  14.5 km/h 98 % 0.01 in /  0.3 mm
05:47 58.6 °F /  14.8 °C 58.1 °F /  14.5 °C 30.1 in /  1020.5 hPa SSW 2 mph /  3.2 km/h 9 mph /  14.5 km/h 98 % 0.01 in /  0.3 mm
05:57 58.6 °F /  14.8 °C 58.1 °F /  14.5 °C 30.1 in /  1020.5 hPa SW 6 mph /  9.7 km/h 8 mph /  12.9 km/h 98 % 0.01 in /  0.3 mm
06:02 58.6 °F /  14.8 °C 58.1 °F /  14.5 °C 30.1 in /  1020.5 hPa SW 3 mph /  4.8 km/h 8 mph /  12.9 km/h 98 % 0.01 in /  0.3 mm
06:12 58.8 °F /  14.9 °C 58.3 °F /  14.6 °C 30.1 in /  1020.5 hPa SW 7 mph /  11.3 km/h 9 mph /  14.5 km/h 98 % 0.01 in /  0.3 mm
06:17 58.8 °F /  14.9 °C 58.3 °F /  14.6 °C 30.1 in /  1020.5 hPa West 3 mph /  4.8 km/h 9 mph /  14.5 km/h 98 % 0 in /  0.0 mm
06:22 58.8 °F /  14.9 °C 58.3 °F /  14.6 °C 30.1 in /  1020.5 hPa SSE 3 mph /  4.8 km/h 10 mph /  16.1 km/h 98 % 0 in /  0.0 mm
06:32 58.8 °F /  14.9 °C 58.3 °F /  14.6 °C 30.1 in /  1020.5 hPa SW 2 mph /  3.2 km/h 11 mph /  17.7 km/h 98 % 0 in /  0.0 mm
06:42 58.8 °F /  14.9 °C 58.3 °F /  14.6 °C 30.1 in /  1020.5 hPa SW 5 mph /  8.0 km/h 8 mph /  12.9 km/h 98 % 0 in /  0.0 mm
06:52 58.8 °F /  14.9 °C 58.3 °F /  14.6 °C 30.1 in /  1020.5 hPa SW 5 mph /  8.0 km/h 7 mph /  11.3 km/h 98 % 0 in /  0.0 mm
07:02 59 °F /  15.0 °C 58.5 °F /  14.7 °C 30.1 in /  1020.5 hPa SW 6 mph /  9.7 km/h 9 mph /  14.5 km/h 98 % 0 in /  0.0 mm
07:12 59 °F /  15.0 °C 58.5 °F /  14.7 °C 30.1 in /  1020.5 hPa SSW 7 mph /  11.3 km/h 10 mph /  16.1 km/h 98 % 0 in /  0.0 mm
07:17 59.2 °F /  15.1 °C 58.6 °F /  14.8 °C 30.1 in /  1020.5 hPa WSW 5 mph /  8.0 km/h 10 mph /  16.1 km/h 98 % 0 in /  0.0 mm
07:22 59.2 °F /  15.1 °C 58.6 °F /  14.8 °C 30.1 in /  1020.5 hPa SW 5 mph /  8.0 km/h 10 mph /  16.1 km/h 98 % 0 in /  0.0 mm
07:27 59.2 °F /  15.1 °C 58.6 °F /  14.8 °C 30.1 in /  1020.5 hPa SW 5 mph /  8.0 km/h 10 mph /  16.1 km/h 98 % 0 in /  0.0 mm
07:32 59.2 °F /  15.1 °C 58.6 °F /  14.8 °C 30.1 in /  1020.5 hPa WSW 4 mph /  6.4 km/h 9 mph /  14.5 km/h 98 % 0 in /  0.0 mm
07:42 59.2 °F /  15.1 °C 58.6 °F /  14.8 °C 30.1 in /  1020.5 hPa SSW 3 mph /  4.8 km/h 9 mph /  14.5 km/h 98 % 0 in /  0.0 mm
07:47 59.2 °F /  15.1 °C 58.6 °F /  14.8 °C 30.1 in /  1020.5 hPa SW 4 mph /  6.4 km/h 8 mph /  12.9 km/h 98 % 0 in /  0.0 mm
07:52 59.2 °F /  15.1 °C 58.6 °F /  14.8 °C 30.1 in /  1020.5 hPa SW 6 mph /  9.7 km/h 8 mph /  12.9 km/h 98 % 0 in /  0.0 mm
08:02 59.4 °F /  15.2 °C 58.8 °F /  14.9 °C 30.1 in /  1020.5 hPa SSW 3 mph /  4.8 km/h 8 mph /  12.9 km/h 98 % 0 in /  0.0 mm
08:12 59.4 °F /  15.2 °C 58.8 °F /  14.9 °C 30.1 in /  1020.5 hPa WSW 4 mph /  6.4 km/h 8 mph /  12.9 km/h 98 % 0 in /  0.0 mm
08:17 59.4 °F /  15.2 °C 58.8 °F /  14.9 °C 30.2 in /  1020.9 hPa SW 4 mph /  6.4 km/h 10 mph /  16.1 km/h 98 % 0 in /  0.0 mm
08:22 59.4 °F /  15.2 °C 58.8 °F /  14.9 °C 30.2 in /  1020.9 hPa SW 2 mph /  3.2 km/h 10 mph /  16.1 km/h 98 % 0 in /  0.0 mm
08:27 59.5 °F /  15.3 °C 59 °F /  15.0 °C 30.2 in /  1020.9 hPa SW 4 mph /  6.4 km/h 10 mph /  16.1 km/h 98 % 0 in /  0.0 mm
08:32 59.5 °F /  15.3 °C 59 °F /  15.0 °C 30.2 in /  1020.9 hPa SW 2 mph /  3.2 km/h 8 mph /  12.9 km/h 98 % 0 in /  0.0 mm
08:42 59.5 °F /  15.3 °C 59 °F /  15.0 °C 30.2 in /  1020.9 hPa SW 3 mph /  4.8 km/h 8 mph /  12.9 km/h 98 % 0 in /  0.0 mm
08:47 59.5 °F /  15.3 °C 59 °F /  15.0 °C 30.2 in /  1020.9 hPa SSE 3 mph /  4.8 km/h 8 mph /  12.9 km/h 98 % 0 in /  0.0 mm
08:52 59.7 °F /  15.4 °C 59.2 °F /  15.1 °C 30.2 in /  1021.2 hPa West 4 mph /  6.4 km/h 8 mph /  12.9 km/h 98 % 0 in /  0.0 mm
08:57 59.7 °F /  15.4 °C 59.2 °F /  15.1 °C 30.2 in /  1021.2 hPa SSW 1 mph /  1.6 km/h 6 mph /  9.7 km/h 98 % 0 in /  0.0 mm
09:02 59.7 °F /  15.4 °C 59.2 °F /  15.1 °C 30.2 in /  1020.9 hPa SW 2 mph /  3.2 km/h 6 mph /  9.7 km/h 98 % 0 in /  0.0 mm
09:07 60.1 °F /  15.6 °C 59.5 °F /  15.3 °C 30.2 in /  1020.9 hPa SW 8 mph /  12.9 km/h 8 mph /  12.9 km/h 98 % 0 in /  0.0 mm
09:12 60.1 °F /  15.6 °C 59.5 °F /  15.3 °C 30.2 in /  1020.9 hPa West 5 mph /  8.0 km/h 9 mph /  14.5 km/h 98 % 0 in /  0.0 mm
09:17 60.1 °F /  15.6 °C 59.5 °F /  15.3 °C 30.2 in /  1021.2 hPa SW 3 mph /  4.8 km/h 9 mph /  14.5 km/h 98 % 0 in /  0.0 mm
09:22 60.1 °F /  15.6 °C 59.5 °F /  15.3 °C 30.2 in /  1021.2 hPa WSW 3 mph /  4.8 km/h 9 mph /  14.5 km/h 98 % 0 in /  0.0 mm
09:27 60.3 °F /  15.7 °C 59.7 °F /  15.4 °C 30.2 in /  1021.2 hPa Calm   6 mph /  9.7 km/h 98 % 0 in /  0.0 mm
09:32 60.4 °F /  15.8 °C 59.9 °F /  15.5 °C 30.2 in /  1020.9 hPa SSW 1 mph /  1.6 km/h 5 mph /  8.0 km/h 98 % 0 in /  0.0 mm
09:37 60.4 °F /  15.8 °C 59.5 °F /  15.3 °C 30.2 in /  1020.9 hPa SSW 3 mph /  4.8 km/h 5 mph /  8.0 km/h 97 % 0 in /  0.0 mm
09:42 61 °F /  16.1 °C 60.1 °F /  15.6 °C 30.2 in /  1021.2 hPa SW 3 mph /  4.8 km/h 5 mph /  8.0 km/h 97 % 0 in /  0.0 mm
09:47 61 °F /  16.1 °C 60.1 °F /  15.6 °C 30.2 in /  1020.9 hPa West 4 mph /  6.4 km/h 7 mph /  11.3 km/h 97 % 0 in /  0.0 mm
09:52 61 °F /  16.1 °C 60.1 °F /  15.6 °C 30.2 in /  1021.2 hPa WSW 2 mph /  3.2 km/h 9 mph /  14.5 km/h 97 % 0 in /  0.0 mm
09:57 60.8 °F /  16.0 °C 59.9 °F /  15.5 °C 30.2 in /  1021.2 hPa WSW 3 mph /  4.8 km/h 9 mph /  14.5 km/h 97 % 0 in /  0.0 mm
10:02 60.8 °F /  16.0 °C 59.9 °F /  15.5 °C 30.2 in /  1021.2 hPa WSW 2 mph /  3.2 km/h 9 mph /  14.5 km/h 97 % 0 in /  0.0 mm
10:12 60.8 °F /  16.0 °C 59.7 °F /  15.4 °C 30.2 in /  1021.2 hPa SW 6 mph /  9.7 km/h 8 mph /  12.9 km/h 96 % 0 in /  0.0 mm
10:17 61 °F /  16.1 °C 59.9 °F /  15.5 °C 30.2 in /  1021.2 hPa WSW 4 mph /  6.4 km/h 8 mph /  12.9 km/h 96 % 0 in /  0.0 mm
10:22 61 °F /  16.1 °C 59.9 °F /  15.5 °C 30.2 in /  1021.2 hPa WSW 4 mph /  6.4 km/h 8 mph /  12.9 km/h 96 % 0 in /  0.0 mm
10:27 61.2 °F /  16.2 °C 60.1 °F /  15.6 °C 30.2 in /  1021.6 hPa WSW 5 mph /  8.0 km/h 8 mph /  12.9 km/h 96 % 0 in /  0.0 mm
10:32 61.2 °F /  16.2 °C 60.1 °F /  15.6 °C 30.2 in /  1021.6 hPa SW 1 mph /  1.6 km/h 8 mph /  12.9 km/h 96 % 0 in /  0.0 mm
10:42 61.7 °F /  16.5 °C 60.3 °F /  15.7 °C 30.2 in /  1021.6 hPa WSW 4 mph /  6.4 km/h 8 mph /  12.9 km/h 95 % 0 in /  0.0 mm
10:47 61.9 °F /  16.6 °C 60.4 °F /  15.8 °C 30.2 in /  1021.6 hPa WSW 6 mph /  9.7 km/h 7 mph /  11.3 km/h 95 % 0 in /  0.0 mm
10:52 61.7 °F /  16.5 °C 59.9 °F /  15.5 °C 30.2 in /  1021.6 hPa WSW 8 mph /  12.9 km/h 9 mph /  14.5 km/h 94 % 0 in /  0.0 mm
11:02 61.7 °F /  16.5 °C 59.9 °F /  15.5 °C 30.2 in /  1021.6 hPa SSE 11 mph /  17.7 km/h 11 mph /  17.7 km/h 94 % 0 in /  0.0 mm
11:07 61.5 °F /  16.4 °C 59.7 °F /  15.4 °C 30.2 in /  1021.6 hPa SW 7 mph /  11.3 km/h 14 mph /  22.5 km/h 94 % 0 in /  0.0 mm
11:17 61.5 °F /  16.4 °C 59.7 °F /  15.4 °C 30.2 in /  1021.9 hPa SW 1 mph /  1.6 km/h 15 mph /  24.1 km/h 94 % 0 in /  0.0 mm
11:27 61.3 °F /  16.3 °C 59.4 °F /  15.2 °C 30.2 in /  1021.9 hPa West 4 mph /  6.4 km/h 13 mph /  20.9 km/h 93 % 0 in /  0.0 mm
11:32 61.3 °F /  16.3 °C 59.4 °F /  15.2 °C 30.2 in /  1021.9 hPa West 5 mph /  8.0 km/h 13 mph /  20.9 km/h 93 % 0 in /  0.0 mm
11:37 61.3 °F /  16.3 °C 59.4 °F /  15.2 °C 30.2 in /  1021.9 hPa West 7 mph /  11.3 km/h 13 mph /  20.9 km/h 93 % 0 in /  0.0 mm
11:42 61.5 °F /  16.4 °C 59.2 °F /  15.1 °C 30.2 in /  1021.9 hPa SW 7 mph /  11.3 km/h 11 mph /  17.7 km/h 92 % 0 in /  0.0 mm
11:52 61.9 °F /  16.6 °C 59.5 °F /  15.3 °C 30.2 in /  1021.9 hPa WSW 3 mph /  4.8 km/h 12 mph /  19.3 km/h 92 % 0 in /  0.0 mm
12:02 62.1 °F /  16.7 °C 59.4 °F /  15.2 °C 30.2 in /  1021.9 hPa WSW 10 mph /  16.1 km/h 12 mph /  19.3 km/h 91 % 0 in /  0.0 mm
12:07 62.2 °F /  16.8 °C 59.5 °F /  15.3 °C 30.2 in /  1021.9 hPa WSW 11 mph /  17.7 km/h 15 mph /  24.1 km/h 91 % 0 in /  0.0 mm
12:12 62.4 °F /  16.9 °C 59.4 °F /  15.2 °C 30.2 in /  1021.9 hPa WSW 6 mph /  9.7 km/h 18 mph /  29.0 km/h 90 % 0 in /  0.0 mm
12:17 62.8 °F /  17.1 °C 59.7 °F /  15.4 °C 30.2 in /  1021.9 hPa WSW 10 mph /  16.1 km/h 18 mph /  29.0 km/h 90 % 0 in /  0.0 mm
12:22 63.1 °F /  17.3 °C 60.1 °F /  15.6 °C 30.2 in /  1021.6 hPa SW 10 mph /  16.1 km/h 18 mph /  29.0 km/h 90 % 0 in /  0.0 mm
12:32 63.3 °F /  17.4 °C 60.1 °F /  15.6 °C 30.2 in /  1021.9 hPa West 5 mph /  8.0 km/h 16 mph /  25.7 km/h 89 % 0 in /  0.0 mm
12:42 63.9 °F /  17.7 °C 60.6 °F /  15.9 °C 30.2 in /  1021.9 hPa SW 4 mph /  6.4 km/h 17 mph /  27.4 km/h 89 % 0.01 in /  0.3 mm
12:47 64.4 °F /  18.0 °C 60.4 °F /  15.8 °C 30.2 in /  1021.6 hPa West 8 mph /  12.9 km/h 17 mph /  27.4 km/h 87 % 0.01 in /  0.3 mm
12:57 64.2 °F /  17.9 °C 60.3 °F /  15.7 °C 30.2 in /  1021.9 hPa WSW 7 mph /  11.3 km/h 15 mph /  24.1 km/h 87 % 0.01 in /  0.3 mm
13:07 64 °F /  17.8 °C 59.7 °F /  15.4 °C 30.2 in /  1021.9 hPa SSW 5 mph /  8.0 km/h 15 mph /  24.1 km/h 86 % 0.01 in /  0.3 mm
13:12 64.2 °F /  17.9 °C 59.9 °F /  15.5 °C 30.2 in /  1021.9 hPa SW 14 mph /  22.5 km/h 15 mph /  24.1 km/h 86 % 0.01 in /  0.3 mm
13:17 64 °F /  17.8 °C 59.7 °F /  15.4 °C 30.2 in /  1021.6 hPa West 3 mph /  4.8 km/h 15 mph /  24.1 km/h 86 % 0.01 in /  0.3 mm
13:22 64.2 °F /  17.9 °C 60.3 °F /  15.7 °C 30.2 in /  1021.9 hPa WSW 5 mph /  8.0 km/h 15 mph /  24.1 km/h 87 % 0.01 in /  0.3 mm
13:27 64 °F /  17.8 °C 59.7 °F /  15.4 °C 30.2 in /  1021.6 hPa West 8 mph /  12.9 km/h 16 mph /  25.7 km/h 86 % 0.01 in /  0.3 mm
13:32 64.2 °F /  17.9 °C 60.3 °F /  15.7 °C 30.2 in /  1021.6 hPa WSW 7 mph /  11.3 km/h 16 mph /  25.7 km/h 87 % 0.01 in /  0.3 mm
13:37 64.4 °F /  18.0 °C 60.1 °F /  15.6 °C 30.2 in /  1021.6 hPa SSW 5 mph /  8.0 km/h 16 mph /  25.7 km/h 86 % 0 in /  0.0 mm
13:42 64.2 °F /  17.9 °C 59.5 °F /  15.3 °C 30.2 in /  1021.6 hPa West 8 mph /  12.9 km/h 12 mph /  19.3 km/h 85 % 0 in /  0.0 mm
13:47 64.2 °F /  17.9 °C 59.9 °F /  15.5 °C 30.2 in /  1021.6 hPa WSW 6 mph /  9.7 km/h 15 mph /  24.1 km/h 86 % 0 in /  0.0 mm
13:52 64.2 °F /  17.9 °C 59.5 °F /  15.3 °C 30.2 in /  1021.9 hPa WSW 10 mph /  16.1 km/h 18 mph /  29.0 km/h 85 % 0 in /  0.0 mm
14:02 64.2 °F /  17.9 °C 60.3 °F /  15.7 °C 30.2 in /  1021.6 hPa WSW 10 mph /  16.1 km/h 21 mph /  33.8 km/h 87 % 0 in /  0.0 mm
14:17 64.4 °F /  18.0 °C 60.4 °F /  15.8 °C 30.2 in /  1021.6 hPa WSW 4 mph /  6.4 km/h 13 mph /  20.9 km/h 87 % 0 in /  0.0 mm
14:22 64.6 °F /  18.1 °C 60.6 °F /  15.9 °C 30.2 in /  1021.6 hPa WSW 6 mph /  9.7 km/h 13 mph /  20.9 km/h 87 % 0 in /  0.0 mm
14:27 64.6 °F /  18.1 °C 60.6 °F /  15.9 °C 30.2 in /  1021.9 hPa West 9 mph /  14.5 km/h 13 mph /  20.9 km/h 87 % 0 in /  0.0 mm
14:32 64.6 °F /  18.1 °C 60.6 °F /  15.9 °C 30.2 in /  1021.9 hPa WSW 8 mph /  12.9 km/h 13 mph /  20.9 km/h 87 % 0 in /  0.0 mm
14:37 64.4 °F /  18.0 °C 60.4 °F /  15.8 °C 30.2 in /  1021.9 hPa West 5 mph /  8.0 km/h 13 mph /  20.9 km/h 87 % 0 in /  0.0 mm
14:42 64.4 °F /  18.0 °C 60.4 °F /  15.8 °C 30.2 in /  1021.6 hPa WSW 8 mph /  12.9 km/h 12 mph /  19.3 km/h 87 % 0 in /  0.0 mm
14:47 64.4 °F /  18.0 °C 60.4 °F /  15.8 °C 30.2 in /  1021.6 hPa West 7 mph /  11.3 km/h 12 mph /  19.3 km/h 87 % 0 in /  0.0 mm
14:52 64.6 °F /  18.1 °C 60.6 °F /  15.9 °C 30.2 in /  1021.6 hPa WSW 5 mph /  8.0 km/h 12 mph /  19.3 km/h 87 % 0 in /  0.0 mm
14:57 64.6 °F /  18.1 °C 60.6 °F /  15.9 °C 30.2 in /  1021.6 hPa West 4 mph /  6.4 km/h 14 mph /  22.5 km/h 87 % 0 in /  0.0 mm
15:02 64.8 °F /  18.2 °C 60.4 °F /  15.8 °C 30.2 in /  1021.6 hPa SW 6 mph /  9.7 km/h 14 mph /  22.5 km/h 86 % 0 in /  0.0 mm
15:12 64.6 °F /  18.1 °C 60.3 °F /  15.7 °C 30.2 in /  1021.6 hPa SW 5 mph /  8.0 km/h 12 mph /  19.3 km/h 86 % 0 in /  0.0 mm
15:17 64.2 °F /  17.9 °C 59.9 °F /  15.5 °C 30.2 in /  1021.6 hPa SW 6 mph /  9.7 km/h 12 mph /  19.3 km/h 86 % 0 in /  0.0 mm
15:22 64.2 °F /  17.9 °C 60.3 °F /  15.7 °C 30.2 in /  1021.6 hPa SW 5 mph /  8.0 km/h 15 mph /  24.1 km/h 87 % 0 in /  0.0 mm
15:27 64.2 °F /  17.9 °C 60.3 °F /  15.7 °C 30.2 in /  1021.6 hPa SW 3 mph /  4.8 km/h 15 mph /  24.1 km/h 87 % 0 in /  0.0 mm
15:32 64.2 °F /  17.9 °C 60.3 °F /  15.7 °C 30.2 in /  1021.9 hPa SW 7 mph /  11.3 km/h 14 mph /  22.5 km/h 87 % 0 in /  0.0 mm
15:37 64.2 °F /  17.9 °C 60.6 °F /  15.9 °C 30.2 in /  1021.9 hPa SW 3 mph /  4.8 km/h 12 mph /  19.3 km/h 88 % 0 in /  0.0 mm
15:42 64 °F /  17.8 °C 60.1 °F /  15.6 °C 30.2 in /  1021.9 hPa West 8 mph /  12.9 km/h 11 mph /  17.7 km/h 87 % 0 in /  0.0 mm
15:47 64.2 °F /  17.9 °C 60.3 °F /  15.7 °C 30.2 in /  1021.9 hPa WSW 8 mph /  12.9 km/h 13 mph /  20.9 km/h 87 % 0 in /  0.0 mm
15:52 64.2 °F /  17.9 °C 60.6 °F /  15.9 °C 30.2 in /  1021.6 hPa WSW 5 mph /  8.0 km/h 13 mph /  20.9 km/h 88 % 0 in /  0.0 mm
16:02 64.6 °F /  18.1 °C 60.6 °F /  15.9 °C 30.2 in /  1021.6 hPa West 7 mph /  11.3 km/h 11 mph /  17.7 km/h 87 % 0 in /  0.0 mm
16:07 64.6 °F /  18.1 °C 60.6 °F /  15.9 °C 30.2 in /  1021.6 hPa SW 3 mph /  4.8 km/h 10 mph /  16.1 km/h 87 % 0 in /  0.0 mm
16:12 64.8 °F /  18.2 °C 60.8 °F /  16.0 °C 30.2 in /  1021.6 hPa West 3 mph /  4.8 km/h 12 mph /  19.3 km/h 87 % 0 in /  0.0 mm
16:17 64.8 °F /  18.2 °C 60.8 °F /  16.0 °C 30.2 in /  1021.6 hPa WSW 3 mph /  4.8 km/h 12 mph /  19.3 km/h 87 % 0 in /  0.0 mm
16:22 64.9 °F /  18.3 °C 61 °F /  16.1 °C 30.2 in /  1021.6 hPa West 6 mph /  9.7 km/h 12 mph /  19.3 km/h 87 % 0 in /  0.0 mm
16:27 65.1 °F /  18.4 °C 61.2 °F /  16.2 °C 30.2 in /  1021.2 hPa WNW 6 mph /  9.7 km/h 12 mph /  19.3 km/h 87 % 0 in /  0.0 mm
16:32 65.1 °F /  18.4 °C 60.8 °F /  16.0 °C 30.2 in /  1021.2 hPa WSW 12 mph /  19.3 km/h 12 mph /  19.3 km/h 86 % 0 in /  0.0 mm
16:37 65.1 °F /  18.4 °C 61.2 °F /  16.2 °C 30.2 in /  1021.2 hPa WSW 7 mph /  11.3 km/h 12 mph /  19.3 km/h 87 % 0 in /  0.0 mm
16:42 65.1 °F /  18.4 °C 60.8 °F /  16.0 °C 30.2 in /  1021.2 hPa West 6 mph /  9.7 km/h 12 mph /  19.3 km/h 86 % 0 in /  0.0 mm
16:47 65.1 °F /  18.4 °C 61.2 °F /  16.2 °C 30.2 in /  1021.6 hPa West 5 mph /  8.0 km/h 12 mph /  19.3 km/h 87 % 0 in /  0.0 mm
16:52 65.1 °F /  18.4 °C 61.2 °F /  16.2 °C 30.2 in /  1021.6 hPa SW 4 mph /  6.4 km/h 12 mph /  19.3 km/h 87 % 0 in /  0.0 mm
16:57 65.1 °F /  18.4 °C 61.2 °F /  16.2 °C 30.2 in /  1021.6 hPa WSW 6 mph /  9.7 km/h 12 mph /  19.3 km/h 87 % 0 in /  0.0 mm
17:02 65.1 °F /  18.4 °C 61.2 °F /  16.2 °C 30.2 in /  1021.6 hPa SW 4 mph /  6.4 km/h 10 mph /  16.1 km/h 87 % 0 in /  0.0 mm
17:07 65.1 °F /  18.4 °C 61.2 °F /  16.2 °C 30.2 in /  1021.6 hPa West 6 mph /  9.7 km/h 10 mph /  16.1 km/h 87 % 0 in /  0.0 mm
17:12 65.1 °F /  18.4 °C 61.2 °F /  16.2 °C 30.2 in /  1021.6 hPa SW 7 mph /  11.3 km/h 10 mph /  16.1 km/h 87 % 0 in /  0.0 mm
17:17 65.1 °F /  18.4 °C 61.2 °F /  16.2 °C 30.2 in /  1021.6 hPa WSW 2 mph /  3.2 km/h 10 mph /  16.1 km/h 87 % 0 in /  0.0 mm
17:22 65.1 °F /  18.4 °C 61.2 °F /  16.2 °C 30.2 in /  1021.2 hPa SW 9 mph /  14.5 km/h 10 mph /  16.1 km/h 87 % 0 in /  0.0 mm
17:32 65.3 °F /  18.5 °C 61.3 °F /  16.3 °C 30.2 in /  1021.2 hPa West 3 mph /  4.8 km/h 13 mph /  20.9 km/h 87 % 0 in /  0.0 mm
17:37 65.5 °F /  18.6 °C 61.9 °F /  16.6 °C 30.2 in /  1021.2 hPa WSW 6 mph /  9.7 km/h 13 mph /  20.9 km/h 88 % 0 in /  0.0 mm
17:42 65.7 °F /  18.7 °C 61.7 °F /  16.5 °C 30.2 in /  1021.2 hPa SW 10 mph /  16.1 km/h 12 mph /  19.3 km/h 87 % 0 in /  0.0 mm
17:47 65.7 °F /  18.7 °C 61.7 °F /  16.5 °C 30.2 in /  1021.2 hPa WSW 7 mph /  11.3 km/h 11 mph /  17.7 km/h 87 % 0 in /  0.0 mm
17:52 65.8 °F /  18.8 °C 61.9 °F /  16.6 °C 30.2 in /  1021.2 hPa WSW 5 mph /  8.0 km/h 11 mph /  17.7 km/h 87 % 0 in /  0.0 mm
17:57 65.7 °F /  18.7 °C 61.7 °F /  16.5 °C 30.2 in /  1021.2 hPa West 3 mph /  4.8 km/h 10 mph /  16.1 km/h 87 % 0 in /  0.0 mm
18:02 65.7 °F /  18.7 °C 61.7 °F /  16.5 °C 30.2 in /  1021.2 hPa WSW 7 mph /  11.3 km/h 13 mph /  20.9 km/h 87 % 0 in /  0.0 mm
18:07 65.7 °F /  18.7 °C 61.7 °F /  16.5 °C 30.2 in /  1021.2 hPa West 5 mph /  8.0 km/h 14 mph /  22.5 km/h 87 % 0 in /  0.0 mm
18:12 65.5 °F /  18.6 °C 61.5 °F /  16.4 °C 30.2 in /  1021.6 hPa SW 3 mph /  4.8 km/h 14 mph /  22.5 km/h 87 % 0 in /  0.0 mm
18:17 65.5 °F /  18.6 °C 61.9 °F /  16.6 °C 30.2 in /  1021.6 hPa WSW 9 mph /  14.5 km/h 13 mph /  20.9 km/h 88 % 0 in /  0.0 mm
18:22 65.3 °F /  18.5 °C 61.7 °F /  16.5 °C 30.2 in /  1021.6 hPa SW 6 mph /  9.7 km/h 14 mph /  22.5 km/h 88 % 0 in /  0.0 mm
18:27 65.3 °F /  18.5 °C 61.7 °F /  16.5 °C 30.2 in /  1021.6 hPa WSW 4 mph /  6.4 km/h 14 mph /  22.5 km/h 88 % 0 in /  0.0 mm
18:32 65.3 °F /  18.5 °C 61.7 °F /  16.5 °C 30.2 in /  1021.6 hPa WSW 6 mph /  9.7 km/h 12 mph /  19.3 km/h 88 % 0 in /  0.0 mm
18:42 65.3 °F /  18.5 °C 61.7 °F /  16.5 °C 30.2 in /  1021.6 hPa West 3 mph /  4.8 km/h 8 mph /  12.9 km/h 88 % 0 in /  0.0 mm
18:47 65.1 °F /  18.4 °C 61.5 °F /  16.4 °C 30.2 in /  1021.6 hPa West 6 mph /  9.7 km/h 12 mph /  19.3 km/h 88 % 0 in /  0.0 mm
18:52 64.9 °F /  18.3 °C 61.7 °F /  16.5 °C 30.2 in /  1021.6 hPa West 6 mph /  9.7 km/h 12 mph /  19.3 km/h 89 % 0 in /  0.0 mm
18:57 64.8 °F /  18.2 °C 61.7 °F /  16.5 °C 30.2 in /  1021.6 hPa WSW 8 mph /  12.9 km/h 12 mph /  19.3 km/h 90 % 0 in /  0.0 mm
19:02 64.4 °F /  18.0 °C 61.7 °F /  16.5 °C 30.2 in /  1021.6 hPa SW 5 mph /  8.0 km/h 13 mph /  20.9 km/h 91 % 0 in /  0.0 mm
19:07 64 °F /  17.8 °C 61.7 °F /  16.5 °C 30.2 in /  1021.6 hPa WSW 9 mph /  14.5 km/h 13 mph /  20.9 km/h 92 % 0 in /  0.0 mm
19:12 63.9 °F /  17.7 °C 61.5 °F /  16.4 °C 30.2 in /  1021.6 hPa WSW 3 mph /  4.8 km/h 11 mph /  17.7 km/h 92 % 0 in /  0.0 mm
19:17 63.7 °F /  17.6 °C 61.7 °F /  16.5 °C 30.2 in /  1021.6 hPa West 8 mph /  12.9 km/h 12 mph /  19.3 km/h 93 % 0 in /  0.0 mm
19:22 63.7 °F /  17.6 °C 61.7 °F /  16.5 °C 30.2 in /  1021.6 hPa West 2 mph /  3.2 km/h 12 mph /  19.3 km/h 93 % 0 in /  0.0 mm
19:27 63.7 °F /  17.6 °C 61.7 °F /  16.5 °C 30.2 in /  1021.6 hPa South 2 mph /  3.2 km/h 10 mph /  16.1 km/h 93 % 0 in /  0.0 mm
19:32 63.5 °F /  17.5 °C 61.5 °F /  16.4 °C 30.2 in /  1021.6 hPa WSW 6 mph /  9.7 km/h 10 mph /  16.1 km/h 93 % 0 in /  0.0 mm
19:37 63.5 °F /  17.5 °C 61.7 °F /  16.5 °C 30.2 in /  1021.6 hPa SW 2 mph /  3.2 km/h 12 mph /  19.3 km/h 94 % 0 in /  0.0 mm
19:42 63.3 °F /  17.4 °C 61.5 °F /  16.4 °C 30.2 in /  1021.6 hPa SW 5 mph /  8.0 km/h 12 mph /  19.3 km/h 94 % 0 in /  0.0 mm
19:47 63.3 °F /  17.4 °C 61.5 °F /  16.4 °C 30.2 in /  1021.6 hPa West 7 mph /  11.3 km/h 12 mph /  19.3 km/h 94 % 0 in /  0.0 mm
19:52 63.3 °F /  17.4 °C 61.5 °F /  16.4 °C 30.2 in /  1021.6 hPa WSW 5 mph /  8.0 km/h 12 mph /  19.3 km/h 94 % 0 in /  0.0 mm
19:57 63.1 °F /  17.3 °C 61.7 °F /  16.5 °C 30.2 in /  1021.6 hPa SW 10 mph /  16.1 km/h 10 mph /  16.1 km/h 95 % 0 in /  0.0 mm
20:02 63.1 °F /  17.3 °C 61.7 °F /  16.5 °C 30.2 in /  1021.6 hPa SSW 5 mph /  8.0 km/h 13 mph /  20.9 km/h 95 % 0 in /  0.0 mm
20:07 63.1 °F /  17.3 °C 61.7 °F /  16.5 °C 30.2 in /  1021.6 hPa SW 6 mph /  9.7 km/h 13 mph /  20.9 km/h 95 % 0 in /  0.0 mm
20:12 63 °F /  17.2 °C 61.5 °F /  16.4 °C 30.2 in /  1021.6 hPa SW 3 mph /  4.8 km/h 13 mph /  20.9 km/h 95 % 0 in /  0.0 mm
20:17 63 °F /  17.2 °C 61.5 °F /  16.4 °C 30.2 in /  1021.6 hPa SSW 4 mph /  6.4 km/h 10 mph /  16.1 km/h 95 % 0 in /  0.0 mm
20:27 63 °F /  17.2 °C 61.9 °F /  16.6 °C 30.2 in /  1021.2 hPa SW 6 mph /  9.7 km/h 10 mph /  16.1 km/h 96 % 0 in /  0.0 mm
20:32 62.8 °F /  17.1 °C 61.7 °F /  16.5 °C 30.2 in /  1021.6 hPa WSW 5 mph /  8.0 km/h 10 mph /  16.1 km/h 96 % 0 in /  0.0 mm
20:37 62.8 °F /  17.1 °C 61.7 °F /  16.5 °C 30.2 in /  1021.6 hPa SW 3 mph /  4.8 km/h 8 mph /  12.9 km/h 96 % 0 in /  0.0 mm
20:42 62.8 °F /  17.1 °C 61.7 °F /  16.5 °C 30.2 in /  1021.2 hPa SW 5 mph /  8.0 km/h 8 mph /  12.9 km/h 96 % 0 in /  0.0 mm
20:47 62.8 °F /  17.1 °C 61.7 °F /  16.5 °C 30.2 in /  1021.2 hPa SW 7 mph /  11.3 km/h 9 mph /  14.5 km/h 96 % 0 in /  0.0 mm
20:52 62.8 °F /  17.1 °C 61.7 °F /  16.5 °C 30.2 in /  1021.6 hPa SW 5 mph /  8.0 km/h 10 mph /  16.1 km/h 96 % 0 in /  0.0 mm
20:57 62.8 °F /  17.1 °C 61.7 °F /  16.5 °C 30.2 in /  1021.6 hPa WSW 7 mph /  11.3 km/h 11 mph /  17.7 km/h 96 % 0.01 in /  0.3 mm
21:02 62.8 °F /  17.1 °C 61.7 °F /  16.5 °C 30.2 in /  1021.6 hPa WSW 7 mph /  11.3 km/h 12 mph /  19.3 km/h 96 % 0.01 in /  0.3 mm
21:07 62.8 °F /  17.1 °C 61.7 °F /  16.5 °C 30.2 in /  1021.2 hPa SSW 4 mph /  6.4 km/h 12 mph /  19.3 km/h 96 % 0.01 in /  0.3 mm
21:12 62.8 °F /  17.1 °C 61.7 °F /  16.5 °C 30.2 in /  1021.2 hPa West 4 mph /  6.4 km/h 12 mph /  19.3 km/h 96 % 0.01 in /  0.3 mm
21:17 62.8 °F /  17.1 °C 61.7 °F /  16.5 °C 30.2 in /  1021.2 hPa SW 4 mph /  6.4 km/h 12 mph /  19.3 km/h 96 % 0.01 in /  0.3 mm
21:22 62.8 °F /  17.1 °C 61.7 °F /  16.5 °C 30.2 in /  1021.2 hPa WSW 5 mph /  8.0 km/h 13 mph /  20.9 km/h 96 % 0.01 in /  0.3 mm
21:27 62.8 °F /  17.1 °C 61.7 °F /  16.5 °C 30.2 in /  1021.2 hPa SW 5 mph /  8.0 km/h 13 mph /  20.9 km/h 96 % 0.01 in /  0.3 mm
21:32 62.8 °F /  17.1 °C 61.7 °F /  16.5 °C 30.2 in /  1021.2 hPa SW 5 mph /  8.0 km/h 13 mph /  20.9 km/h 96 % 0.01 in /  0.3 mm
21:37 62.8 °F /  17.1 °C 61.7 °F /  16.5 °C 30.2 in /  1021.2 hPa SSW 5 mph /  8.0 km/h 12 mph /  19.3 km/h 96 % 0.01 in /  0.3 mm
21:42 62.8 °F /  17.1 °C 61.7 °F /  16.5 °C 30.2 in /  1021.2 hPa WSW 3 mph /  4.8 km/h 12 mph /  19.3 km/h 96 % 0.01 in /  0.3 mm
21:47 63 °F /  17.2 °C 61.9 °F /  16.6 °C 30.2 in /  1021.2 hPa SW 9 mph /  14.5 km/h 12 mph /  19.3 km/h 96 % 0.01 in /  0.3 mm
21:52 63 °F /  17.2 °C 61.9 °F /  16.6 °C 30.2 in /  1021.2 hPa SW 5 mph /  8.0 km/h 13 mph /  20.9 km/h 96 % 0 in /  0.0 mm
21:57 63 °F /  17.2 °C 61.9 °F /  16.6 °C 30.2 in /  1021.2 hPa SW 3 mph /  4.8 km/h 13 mph /  20.9 km/h 96 % 0 in /  0.0 mm
22:02 63 °F /  17.2 °C 61.9 °F /  16.6 °C 30.2 in /  1021.2 hPa WSW 8 mph /  12.9 km/h 13 mph /  20.9 km/h 96 % 0 in /  0.0 mm
22:07 63.1 °F /  17.3 °C 62.1 °F /  16.7 °C 30.2 in /  1021.2 hPa SW 3 mph /  4.8 km/h 11 mph /  17.7 km/h 96 % 0 in /  0.0 mm
22:12 63.1 °F /  17.3 °C 62.1 °F /  16.7 °C 30.2 in /  1020.9 hPa WSW 6 mph /  9.7 km/h 12 mph /  19.3 km/h 96 % 0 in /  0.0 mm
22:17 63.1 °F /  17.3 °C 62.1 °F /  16.7 °C 30.2 in /  1020.9 hPa West 5 mph /  8.0 km/h 12 mph /  19.3 km/h 96 % 0 in /  0.0 mm
22:22 63.1 °F /  17.3 °C 62.1 °F /  16.7 °C 30.2 in /  1020.9 hPa WSW 6 mph /  9.7 km/h 12 mph /  19.3 km/h 96 % 0.01 in /  0.3 mm
22:27 63.1 °F /  17.3 °C 62.1 °F /  16.7 °C 30.2 in /  1020.9 hPa SSW 8 mph /  12.9 km/h 15 mph /  24.1 km/h 96 % 0.01 in /  0.3 mm
22:32 63.1 °F /  17.3 °C 62.1 °F /  16.7 °C 30.2 in /  1020.9 hPa SW 8 mph /  12.9 km/h 15 mph /  24.1 km/h 96 % 0.01 in /  0.3 mm
22:37 63.1 °F /  17.3 °C 62.1 °F /  16.7 °C 30.2 in /  1020.9 hPa WSW 14 mph /  22.5 km/h 15 mph /  24.1 km/h 96 % 0.01 in /  0.3 mm
22:42 63.1 °F /  17.3 °C 62.1 °F /  16.7 °C 30.2 in /  1020.9 hPa West 3 mph /  4.8 km/h 15 mph /  24.1 km/h 96 % 0.01 in /  0.3 mm
22:47 63.1 °F /  17.3 °C 62.1 °F /  16.7 °C 30.2 in /  1020.9 hPa SW 5 mph /  8.0 km/h 15 mph /  24.1 km/h 96 % 0.01 in /  0.3 mm
22:52 63.1 °F /  17.3 °C 62.1 °F /  16.7 °C 30.2 in /  1020.9 hPa West 4 mph /  6.4 km/h 15 mph /  24.1 km/h 96 % 0.01 in /  0.3 mm
22:57 63.1 °F /  17.3 °C 62.1 °F /  16.7 °C 30.2 in /  1020.9 hPa West 5 mph /  8.0 km/h 13 mph /  20.9 km/h 96 % 0.01 in /  0.3 mm
23:02 63.1 °F /  17.3 °C 62.1 °F /  16.7 °C 30.2 in /  1020.9 hPa SW 7 mph /  11.3 km/h 14 mph /  22.5 km/h 96 % 0.01 in /  0.3 mm
23:07 63.1 °F /  17.3 °C 62.1 °F /  16.7 °C 30.2 in /  1020.9 hPa SW 8 mph /  12.9 km/h 14 mph /  22.5 km/h 96 % 0.01 in /  0.3 mm
23:12 63.1 °F /  17.3 °C 62.1 °F /  16.7 °C 30.1 in /  1020.5 hPa WSW 11 mph /  17.7 km/h 15 mph /  24.1 km/h 96 % 0.01 in /  0.3 mm
23:17 63.1 °F /  17.3 °C 62.1 °F /  16.7 °C 30.2 in /  1020.9 hPa WSW 7 mph /  11.3 km/h 15 mph /  24.1 km/h 96 % 0.01 in /  0.3 mm
23:22 63.1 °F /  17.3 °C 62.1 °F /  16.7 °C 30.2 in /  1020.9 hPa SW 4 mph /  6.4 km/h 19 mph /  30.6 km/h 96 % 0 in /  0.0 mm
23:32 63.1 °F /  17.3 °C 62.1 °F /  16.7 °C 30.2 in /  1020.9 hPa WSW 5 mph /  8.0 km/h 17 mph /  27.4 km/h 96 % 0 in /  0.0 mm
23:37 63.1 °F /  17.3 °C 62.1 °F /  16.7 °C 30.2 in /  1020.9 hPa WSW 3 mph /  4.8 km/h 15 mph /  24.1 km/h 96 % 0 in /  0.0 mm
23:42 63.1 °F /  17.3 °C 62.1 °F /  16.7 °C 30.2 in /  1020.9 hPa SW 8 mph /  12.9 km/h 15 mph /  24.1 km/h 96 % 0 in /  0.0 mm
23:47 63.1 °F /  17.3 °C 62.1 °F /  16.7 °C 30.2 in /  1020.9 hPa SW 8 mph /  12.9 km/h 15 mph /  24.1 km/h 96 % 0 in /  0.0 mm
23:52 63.1 °F /  17.3 °C 62.1 °F /  16.7 °C 30.2 in /  1020.9 hPa SW 8 mph /  12.9 km/h 13 mph /  20.9 km/h 96 % 0 in /  0.0 mm
23:57 63.3 °F /  17.4 °C 62.2 °F /  16.8 °C 30.2 in /  1020.9 hPa SW 4 mph /  6.4 km/h 17 mph /  27.4 km/h 96 % 0 in /  0.0 mm
Meteo18
Compliments of Weather Underground - 4 mb

Script developed by  Jim McMurry - jmcmurry@mwt.net Adapted for the template by  Wim van der Kuil - Leuven-Template.eu

You find our weather info also at:

European Weather Network

Weather Underground

Equipment we use:

Weather-station
Davis Vue

Weather-program
Meteohub

Weather-server
Raspberry PI 2 B+

Provider
1 and 1

Davis Vue

Meteohub

Raspberry PI 2 B+

1 and 1